createdAt,value
2023-04-18T00:00:24.493Z,90.00
2023-04-18T00:01:27.617Z,90.46
2023-04-18T00:02:30.732Z,90.51
2023-04-18T00:03:33.896Z,90.48
2023-04-18T00:04:36.975Z,90.30
2023-04-18T00:05:40.414Z,90.02
2023-04-18T00:06:43.693Z,90.72
2023-04-18T00:07:47.234Z,90.90
2023-04-18T00:08:49.943Z,90.51
2023-04-18T00:09:55.427Z,90.97
2023-04-18T00:10:58.187Z,90.75
2023-04-18T00:12:04.310Z,90.78
2023-04-18T00:13:08.572Z,91.28
2023-04-18T00:14:12.174Z,91.79
2023-04-18T00:15:15.117Z,91.55
2023-04-18T00:16:17.803Z,92.81
2023-04-18T00:17:21.334Z,93.55
2023-04-18T00:18:26.751Z,94.07
2023-04-18T00:19:29.524Z,95.14
2023-04-18T00:20:33.076Z,95.71
2023-04-18T00:21:37.414Z,95.25
2023-04-18T00:22:44.236Z,95.59
2023-04-18T00:23:46.885Z,94.83
2023-04-18T00:24:50.569Z,95.02
2023-04-18T00:25:53.221Z,94.37
2023-04-18T00:26:55.860Z,94.53
2023-04-18T00:27:58.727Z,93.74
2023-04-18T00:29:03.324Z,93.75
2023-04-18T00:30:06.973Z,93.67
2023-04-18T00:31:09.658Z,94.18
2023-04-18T00:32:12.244Z,94.02
2023-04-18T00:33:14.868Z,93.91
2023-04-18T00:34:17.621Z,93.12
2023-04-18T00:35:20.346Z,93.44
2023-04-18T00:36:23.389Z,93.35
2023-04-18T00:37:26.306Z,92.86
2023-04-18T00:38:28.988Z,93.07
2023-04-18T00:39:31.841Z,92.77
2023-04-18T00:40:34.856Z,93.40
2023-04-18T00:41:37.432Z,93.43
2023-04-18T00:42:40.194Z,93.11
2023-04-18T00:43:42.760Z,93.19
2023-04-18T00:44:45.387Z,93.01
2023-04-18T00:45:48.146Z,91.89
2023-04-18T00:46:51.428Z,91.96
2023-04-18T00:47:56.408Z,91.12
2023-04-18T00:48:59.129Z,91.62
2023-04-18T00:50:02.382Z,91.30
2023-04-18T00:51:07.794Z,90.50
2023-04-18T00:52:14.451Z,90.71
2023-04-18T00:53:20.397Z,91.18
2023-04-18T00:54:24.881Z,91.56
2023-04-18T00:55:27.618Z,91.45
2023-04-18T00:56:30.770Z,91.03
2023-04-18T00:57:34.645Z,90.51
2023-04-18T00:58:37.441Z,90.67
2023-04-18T00:59:40.761Z,90.59
2023-04-18T01:00:43.956Z,90.45
2023-04-18T01:01:47.229Z,91.19
2023-04-18T01:02:53.467Z,91.02
2023-04-18T01:03:56.449Z,90.61
2023-04-18T01:04:59.645Z,90.80
2023-04-18T01:06:02.384Z,89.75
2023-04-18T01:07:06.221Z,89.78
2023-04-18T01:08:08.987Z,89.78
2023-04-18T01:09:14.159Z,89.65
2023-04-18T01:10:17.465Z,88.43
2023-04-18T01:11:20.588Z,88.70
2023-04-18T01:12:23.290Z,88.63
2023-04-18T01:13:26.115Z,88.48
2023-04-18T01:14:28.709Z,89.36
2023-04-18T01:15:31.381Z,89.68
2023-04-18T01:16:34.414Z,90.02
2023-04-18T01:17:38.643Z,90.06
2023-04-18T01:18:41.308Z,89.75
2023-04-18T01:19:44.568Z,89.95
2023-04-18T01:20:50.891Z,90.04
2023-04-18T01:21:54.459Z,90.11
2023-04-18T01:22:58.197Z,89.96
2023-04-18T01:24:08.973Z,90.02
2023-04-18T01:25:11.951Z,90.46
2023-04-18T01:26:14.674Z,90.46
2023-04-18T01:27:17.913Z,90.45
2023-04-18T01:28:23.019Z,90.45
2023-04-18T01:29:26.515Z,90.39
2023-04-18T01:30:29.246Z,90.57
2023-04-18T01:31:38.953Z,90.08
2023-04-18T01:32:42.036Z,90.44
2023-04-18T01:33:44.777Z,90.09
2023-04-18T01:34:47.846Z,89.64
2023-04-18T01:35:50.667Z,90.08
2023-04-18T01:36:53.193Z,90.09
2023-04-18T01:37:56.221Z,90.03
2023-04-18T01:38:59.804Z,90.05
2023-04-18T01:40:02.662Z,90.09
2023-04-18T01:41:05.432Z,90.17
2023-04-18T01:42:08.249Z,89.99
2023-04-18T01:43:10.935Z,90.21
2023-04-18T01:44:14.056Z,90.00
2023-04-18T01:45:17.784Z,90.23
2023-04-18T01:46:20.750Z,90.03
2023-04-18T01:47:23.843Z,89.26
2023-04-18T01:48:26.697Z,89.62
2023-04-18T01:49:29.375Z,89.70
2023-04-18T01:50:32.135Z,89.68
2023-04-18T01:51:35.447Z,88.49
2023-04-18T01:52:38.401Z,88.38
2023-04-18T01:53:41.101Z,88.86
2023-04-18T01:54:43.788Z,88.44
2023-04-18T01:55:49.380Z,89.02
2023-04-18T01:56:52.128Z,88.99
2023-04-18T01:57:55.169Z,88.72
2023-04-18T01:58:58.048Z,89.03
2023-04-18T02:00:01.908Z,88.91
2023-04-18T02:01:05.147Z,88.38
2023-04-18T02:02:08.299Z,89.14
2023-04-18T02:03:11.196Z,88.75
2023-04-18T02:04:14.273Z,88.47
2023-04-18T02:05:17.189Z,88.25
2023-04-18T02:06:19.810Z,88.13
2023-04-18T02:07:22.676Z,88.52
2023-04-18T02:08:25.673Z,87.57
2023-04-18T02:09:28.613Z,87.55
2023-04-18T02:10:31.730Z,87.02
2023-04-18T02:11:34.712Z,87.36
2023-04-18T02:12:37.497Z,87.71
2023-04-18T02:13:40.431Z,87.69
2023-04-18T02:14:43.054Z,87.63
2023-04-18T02:15:46.188Z,87.94
2023-04-18T02:16:49.381Z,87.75
2023-04-18T02:17:52.229Z,87.98
2023-04-18T02:18:54.913Z,87.85
2023-04-18T02:19:57.974Z,88.43
2023-04-18T02:21:01.184Z,88.41
2023-04-18T02:22:03.931Z,88.73
2023-04-18T02:23:07.219Z,88.27
2023-04-18T02:24:09.830Z,87.87
2023-04-18T02:25:12.510Z,87.39
2023-04-18T02:26:15.425Z,87.24
2023-04-18T02:27:18.764Z,87.39
2023-04-18T02:28:21.411Z,87.43
2023-04-18T02:29:24.745Z,87.12
2023-04-18T02:30:27.493Z,87.43
2023-04-18T02:31:30.668Z,87.78
2023-04-18T02:32:33.458Z,87.97
2023-04-18T02:33:36.269Z,87.70
2023-04-18T02:34:39.576Z,86.62
2023-04-18T02:35:42.304Z,86.97
2023-04-18T02:36:52.292Z,87.40
2023-04-18T02:37:55.104Z,87.17
2023-04-18T02:38:57.932Z,87.52
2023-04-18T02:40:00.645Z,87.62
2023-04-18T02:41:03.300Z,87.60
2023-04-18T02:42:06.068Z,87.47
2023-04-18T02:43:08.714Z,87.42
2023-04-18T02:44:11.544Z,87.26
2023-04-18T02:45:14.412Z,87.14
2023-04-18T02:46:17.815Z,87.31
2023-04-18T02:47:20.773Z,87.49
2023-04-18T02:48:24.168Z,87.16
2023-04-18T02:49:27.093Z,87.19
2023-04-18T02:50:30.200Z,86.92
2023-04-18T02:51:32.962Z,87.50
2023-04-18T02:52:35.797Z,88.06
2023-04-18T02:53:38.409Z,88.22
2023-04-18T02:54:41.130Z,88.57
2023-04-18T02:55:43.855Z,88.16
2023-04-18T02:56:46.609Z,87.49
2023-04-18T02:57:49.400Z,87.13
2023-04-18T02:58:52.424Z,86.77
2023-04-18T02:59:55.079Z,86.89
2023-04-18T03:00:58.357Z,87.24
2023-04-18T03:02:02.059Z,87.40
2023-04-18T03:03:05.734Z,88.03
2023-04-18T03:04:08.832Z,87.94
2023-04-18T03:05:11.507Z,88.23
2023-04-18T03:06:14.176Z,89.81
2023-04-18T03:07:16.955Z,90.66
2023-04-18T03:08:19.636Z,90.71
2023-04-18T03:09:22.498Z,90.48
2023-04-18T03:10:25.154Z,90.89
2023-04-18T03:11:28.027Z,91.31
2023-04-18T03:12:30.835Z,90.79
2023-04-18T03:13:34.996Z,90.82
2023-04-18T03:14:38.262Z,91.34
2023-04-18T03:15:41.080Z,91.84
2023-04-18T03:16:44.288Z,91.54
2023-04-18T03:17:47.027Z,92.27
2023-04-18T03:18:49.748Z,92.97
2023-04-18T03:19:52.409Z,93.45
2023-04-18T03:20:55.165Z,92.60
2023-04-18T03:21:57.823Z,93.51
2023-04-18T03:23:01.010Z,92.89
2023-04-18T03:24:03.806Z,95.17
2023-04-18T03:25:07.321Z,95.12
2023-04-18T03:26:10.208Z,96.81
2023-04-18T03:27:13.441Z,97.92
2023-04-18T03:28:16.129Z,98.28
2023-04-18T03:29:18.882Z,98.86
2023-04-18T03:30:21.712Z,100.00
2023-04-18T03:31:24.661Z,99.84
2023-04-18T03:32:27.768Z,99.70
2023-04-18T03:33:30.562Z,99.12
2023-04-18T03:34:33.291Z,99.84
2023-04-18T03:35:35.966Z,98.12
2023-04-18T03:36:39.325Z,98.47
2023-04-18T03:37:42.111Z,99.40
2023-04-18T03:38:45.354Z,99.92
2023-04-18T03:39:48.077Z,98.82
2023-04-18T03:40:50.794Z,98.49
2023-04-18T03:41:53.849Z,98.63
2023-04-18T03:42:56.584Z,98.83
2023-04-18T03:43:59.239Z,98.87
2023-04-18T03:45:02.114Z,99.79
2023-04-18T03:46:04.821Z,100.00
2023-04-18T03:47:07.520Z,99.59
2023-04-18T03:48:10.394Z,99.59
2023-04-18T03:49:13.127Z,100.00
2023-04-18T03:50:15.933Z,100.00
2023-04-18T03:51:18.611Z,100.00
2023-04-18T03:52:21.276Z,100.00
2023-04-18T03:53:24.172Z,100.00
2023-04-18T03:54:26.859Z,100.00
2023-04-18T03:55:29.546Z,100.00
2023-04-18T03:56:32.426Z,100.00
2023-04-18T03:57:35.236Z,100.00
2023-04-18T03:58:38.129Z,100.00
2023-04-18T03:59:41.243Z,100.00
2023-04-18T04:00:43.928Z,100.00
2023-04-18T04:01:46.591Z,100.00
2023-04-18T04:02:49.569Z,100.00
2023-04-18T04:03:52.370Z,100.00
2023-04-18T04:04:55.223Z,100.00
2023-04-18T04:05:57.958Z,100.00
2023-04-18T04:07:01.108Z,100.00
2023-04-18T04:08:03.936Z,100.00
2023-04-18T04:09:06.831Z,100.00
2023-04-18T04:10:09.866Z,100.00
2023-04-18T04:11:12.721Z,100.00
2023-04-18T04:12:15.442Z,100.00
2023-04-18T04:13:18.070Z,100.00
2023-04-18T04:14:21.672Z,100.00
2023-04-18T04:15:24.264Z,100.00
2023-04-18T04:16:28.297Z,100.00
2023-04-18T04:17:31.066Z,100.00
2023-04-18T04:18:33.922Z,100.00
2023-04-18T04:19:36.525Z,100.00
2023-04-18T04:20:39.106Z,100.00
2023-04-18T04:21:41.737Z,100.00
2023-04-18T04:22:44.385Z,100.00
2023-04-18T04:23:46.917Z,100.00
2023-04-18T04:24:49.514Z,100.00
2023-04-18T04:25:53.228Z,100.00
2023-04-18T04:26:56.503Z,100.00
2023-04-18T04:28:01.774Z,100.00
2023-04-18T04:29:05.306Z,100.00
2023-04-18T04:30:09.555Z,100.00
2023-04-18T04:31:13.668Z,100.00
2023-04-18T04:32:17.102Z,100.00
2023-04-18T04:33:20.956Z,100.00
2023-04-18T04:34:23.626Z,100.00
2023-04-18T04:35:26.965Z,100.00
2023-04-18T04:36:29.750Z,100.00
2023-04-18T04:37:33.676Z,100.00
2023-04-18T04:38:38.635Z,100.00
2023-04-18T04:39:41.562Z,100.00
2023-04-18T04:40:44.285Z,100.00
2023-04-18T04:41:47.476Z,100.00
2023-04-18T04:42:54.166Z,100.00
2023-04-18T04:43:57.050Z,100.00
2023-04-18T04:44:59.697Z,100.00
2023-04-18T04:46:07.792Z,100.00
2023-04-18T04:47:10.693Z,100.00
2023-04-18T04:48:13.491Z,100.00
2023-04-18T04:49:16.233Z,100.00
2023-04-18T04:50:19.297Z,100.00
2023-04-18T04:51:22.148Z,100.00
2023-04-18T04:52:25.566Z,100.00
2023-04-18T04:53:32.624Z,100.00
2023-04-18T04:54:35.567Z,100.00
2023-04-18T04:55:39.002Z,100.00
2023-04-18T04:56:41.631Z,100.00
2023-04-18T04:57:45.133Z,100.00
2023-04-18T04:58:47.857Z,100.00
2023-04-18T04:59:50.791Z,100.00
2023-04-18T05:00:53.981Z,100.00
2023-04-18T05:01:59.737Z,100.00
2023-04-18T05:03:02.678Z,100.00
2023-04-18T05:04:06.013Z,100.00
2023-04-18T05:05:09.075Z,100.00
2023-04-18T05:06:11.716Z,100.00
2023-04-18T05:07:14.863Z,100.00
2023-04-18T05:08:17.585Z,100.00
2023-04-18T05:09:20.958Z,100.00
2023-04-18T05:10:24.140Z,100.00
2023-04-18T05:11:27.213Z,100.00
2023-04-18T05:12:30.070Z,100.00
2023-04-18T05:13:32.905Z,100.00
2023-04-18T05:14:35.754Z,100.00
2023-04-18T05:15:40.196Z,100.00
2023-04-18T05:16:43.094Z,100.00
2023-04-18T05:17:46.044Z,100.00
2023-04-18T05:18:48.857Z,100.00
2023-04-18T05:19:52.655Z,100.00
2023-04-18T05:20:56.062Z,100.00
2023-04-18T05:21:58.713Z,100.00
2023-04-18T05:23:01.354Z,100.00
2023-04-18T05:24:03.994Z,100.00
2023-04-18T05:25:07.148Z,100.00
2023-04-18T05:26:09.829Z,100.00
2023-04-18T05:27:15.880Z,100.00
2023-04-18T05:28:19.887Z,100.00
2023-04-18T05:29:22.536Z,100.00
2023-04-18T05:30:25.334Z,100.00
2023-04-18T05:31:30.306Z,100.00
2023-04-18T05:32:33.554Z,100.00
2023-04-18T05:33:36.312Z,100.00
2023-04-18T05:34:39.566Z,100.00
2023-04-18T05:35:42.293Z,100.00
2023-04-18T05:36:45.546Z,100.00
2023-04-18T05:37:48.346Z,100.00
2023-04-18T05:38:51.808Z,100.00
2023-04-18T05:39:54.447Z,100.00
2023-04-18T05:41:00.399Z,100.00
2023-04-18T05:42:03.756Z,100.00
2023-04-18T05:43:06.452Z,100.00
2023-04-18T05:44:09.329Z,100.00
2023-04-18T05:45:12.150Z,100.00
2023-04-18T05:46:14.942Z,100.00
2023-04-18T05:47:17.748Z,100.00
2023-04-18T05:48:21.563Z,100.00
2023-04-18T05:49:24.208Z,100.00
2023-04-18T05:50:27.186Z,100.00
2023-04-18T05:51:29.956Z,100.00
2023-04-18T05:52:32.823Z,100.00
2023-04-18T05:53:35.355Z,100.00
2023-04-18T05:54:38.041Z,100.00
2023-04-18T05:55:41.237Z,100.00
2023-04-18T05:56:44.421Z,100.00
2023-04-18T05:57:47.299Z,100.00
2023-04-18T05:58:51.510Z,100.00
2023-04-18T05:59:54.359Z,100.00
2023-04-18T06:00:57.289Z,100.00
2023-04-18T06:02:00.041Z,100.00
2023-04-18T06:03:03.247Z,100.00
2023-04-18T06:04:06.536Z,100.00
2023-04-18T06:05:09.781Z,100.00
2023-04-18T06:06:13.507Z,100.00
2023-04-18T06:07:16.171Z,100.00
2023-04-18T06:08:19.059Z,99.61
2023-04-18T06:09:21.712Z,98.09
2023-04-18T06:10:24.692Z,97.29
2023-04-18T06:11:27.707Z,97.13
2023-04-18T06:12:30.856Z,96.36
2023-04-18T06:13:33.588Z,97.47
2023-04-18T06:14:36.185Z,99.57
2023-04-18T06:15:38.887Z,99.46
2023-04-18T06:16:41.686Z,100.00
2023-04-18T06:17:44.905Z,97.86
2023-04-18T06:18:47.987Z,96.62
2023-04-18T06:19:50.842Z,95.54
2023-04-18T06:20:53.514Z,95.74
2023-04-18T06:21:56.015Z,97.11
2023-04-18T06:22:58.626Z,95.04
2023-04-18T06:24:01.759Z,92.87
2023-04-18T06:25:04.646Z,92.28
2023-04-18T06:26:07.577Z,93.24
2023-04-18T06:27:17.701Z,91.73
2023-04-18T06:28:27.247Z,88.99
2023-04-18T06:29:33.603Z,91.15
2023-04-18T06:30:36.775Z,92.48
2023-04-18T06:31:39.701Z,93.38
2023-04-18T06:32:43.801Z,93.35
2023-04-18T06:33:46.463Z,91.01
2023-04-18T06:34:49.071Z,90.76
2023-04-18T06:35:52.058Z,92.10
2023-04-18T06:36:54.666Z,92.04
2023-04-18T06:37:57.414Z,91.52
2023-04-18T06:39:00.414Z,91.57
2023-04-18T06:40:03.107Z,90.77
2023-04-18T06:41:05.984Z,90.42
2023-04-18T06:42:08.702Z,90.29
2023-04-18T06:43:11.454Z,91.36
2023-04-18T06:44:14.041Z,89.47
2023-04-18T06:45:16.688Z,88.91
2023-04-18T06:46:19.645Z,90.07
2023-04-18T06:47:23.174Z,89.09
2023-04-18T06:48:26.166Z,88.31
2023-04-18T06:49:28.911Z,89.41
2023-04-18T06:50:32.100Z,86.45
2023-04-18T06:51:34.946Z,84.35
2023-04-18T06:52:40.866Z,86.63
2023-04-18T06:53:45.892Z,85.79
2023-04-18T06:54:48.498Z,86.23
2023-04-18T06:55:51.286Z,84.11
2023-04-18T06:56:54.197Z,84.36
2023-04-18T06:57:56.955Z,86.61
2023-04-18T06:58:59.961Z,86.22
2023-04-18T07:00:03.874Z,85.82
2023-04-18T07:01:06.932Z,85.98
2023-04-18T07:02:09.835Z,86.53
2023-04-18T07:03:13.691Z,85.06
2023-04-18T07:04:16.763Z,83.97
2023-04-18T07:05:19.653Z,84.46
2023-04-18T07:06:22.371Z,84.51
2023-04-18T07:07:26.671Z,83.92
2023-04-18T07:08:29.366Z,83.45
2023-04-18T07:09:32.661Z,81.24
2023-04-18T07:10:35.501Z,80.92
2023-04-18T07:11:40.704Z,80.68
2023-04-18T07:12:43.623Z,78.74
2023-04-18T07:13:48.568Z,79.56
2023-04-18T07:14:52.006Z,79.49
2023-04-18T07:15:54.807Z,80.91
2023-04-18T07:16:58.090Z,76.91
2023-04-18T07:18:01.016Z,77.89
2023-04-18T07:19:04.314Z,76.42
2023-04-18T07:20:08.040Z,76.27
2023-04-18T07:21:11.099Z,78.12
2023-04-18T07:22:14.103Z,77.82
2023-04-18T07:23:17.012Z,75.95
2023-04-18T07:24:19.806Z,75.96
2023-04-18T07:25:22.535Z,73.61
2023-04-18T07:26:27.015Z,73.12
2023-04-18T07:27:29.930Z,72.47
2023-04-18T07:28:33.189Z,70.35
2023-04-18T07:29:36.462Z,69.37
2023-04-18T07:30:39.256Z,70.25
2023-04-18T07:31:41.984Z,73.30
2023-04-18T07:32:44.953Z,70.38
2023-04-18T07:33:47.670Z,70.84
2023-04-18T07:34:52.157Z,70.92
2023-04-18T07:35:54.889Z,70.04
2023-04-18T07:36:57.968Z,71.26
2023-04-18T07:38:01.401Z,71.63
2023-04-18T07:39:04.061Z,72.60
2023-04-18T07:40:08.434Z,73.53
2023-04-18T07:41:11.410Z,72.51
2023-04-18T07:43:17.005Z,72.03
2023-04-18T07:44:21.735Z,70.65
2023-04-18T07:45:24.409Z,72.23
2023-04-18T07:46:27.330Z,71.88
2023-04-18T07:47:31.150Z,71.80
2023-04-18T07:48:35.051Z,71.70
2023-04-18T07:49:38.536Z,71.44
2023-04-18T07:50:41.727Z,70.58
2023-04-18T07:51:44.508Z,68.44
2023-04-18T07:52:50.679Z,68.54
2023-04-18T07:53:53.352Z,69.94
2023-04-18T07:54:55.968Z,69.77
2023-04-18T07:55:58.754Z,69.18
2023-04-18T07:57:02.045Z,67.82
2023-04-18T07:58:04.808Z,69.69
2023-04-18T07:59:07.473Z,68.96
2023-04-18T08:00:12.563Z,69.04
2023-04-18T08:01:18.441Z,69.64
2023-04-18T08:02:21.823Z,69.20
2023-04-18T08:03:24.890Z,69.71
2023-04-18T08:04:29.942Z,68.64
2023-04-18T08:05:33.624Z,68.92
2023-04-18T08:06:36.415Z,68.15
2023-04-18T08:07:39.098Z,66.14
2023-04-18T08:08:42.198Z,68.16
2023-04-18T08:09:46.057Z,68.45
2023-04-18T08:10:48.844Z,70.03
2023-04-18T08:11:51.704Z,68.91
2023-04-18T08:12:54.342Z,71.94
2023-04-18T08:13:56.985Z,70.96
2023-04-18T08:14:59.575Z,71.60
2023-04-18T08:16:03.119Z,71.01
2023-04-18T08:17:05.775Z,71.53
2023-04-18T08:18:09.641Z,69.90
2023-04-18T08:19:12.554Z,69.25
2023-04-18T08:20:15.750Z,68.79
2023-04-18T08:21:19.542Z,70.20
2023-04-18T08:22:22.299Z,69.99
2023-04-18T08:23:25.140Z,70.43
2023-04-18T08:24:28.334Z,70.36
2023-04-18T08:25:31.874Z,69.90
2023-04-18T08:26:34.538Z,67.87
2023-04-18T08:27:37.231Z,67.97
2023-04-18T08:28:39.918Z,67.70
2023-04-18T08:29:42.570Z,65.34
2023-04-18T08:30:48.951Z,65.59
2023-04-18T08:31:51.768Z,67.60
2023-04-18T08:32:54.401Z,66.78
2023-04-18T08:33:57.002Z,65.86
2023-04-18T08:34:59.697Z,66.43
2023-04-18T08:36:02.367Z,64.29
2023-04-18T08:37:05.174Z,64.08
2023-04-18T08:38:07.908Z,64.97
2023-04-18T08:39:10.763Z,62.58
2023-04-18T08:40:14.008Z,61.63
2023-04-18T08:41:23.544Z,65.43
2023-04-18T08:42:27.309Z,62.96
2023-04-18T08:43:31.567Z,60.63
2023-04-18T08:44:34.551Z,60.05
2023-04-18T08:45:37.237Z,60.11
2023-04-18T08:46:40.185Z,60.07
2023-04-18T08:47:43.240Z,60.40
2023-04-18T08:48:49.555Z,61.00
2023-04-18T08:49:53.785Z,60.80
2023-04-18T08:51:00.284Z,58.58
2023-04-18T08:52:05.184Z,59.22
2023-04-18T08:53:08.007Z,58.54
2023-04-18T08:54:10.816Z,58.83
2023-04-18T08:55:13.733Z,57.29
2023-04-18T08:56:16.899Z,59.78
2023-04-18T08:57:30.523Z,58.88
2023-04-18T08:58:34.413Z,59.15
2023-04-18T08:59:37.049Z,60.96
2023-04-18T09:00:39.776Z,58.70
2023-04-18T09:01:56.683Z,58.81
2023-04-18T09:02:59.822Z,60.01
2023-04-18T09:04:02.572Z,57.61
2023-04-18T09:05:16.660Z,55.68
2023-04-18T09:06:20.376Z,52.51
2023-04-18T09:07:31.648Z,51.41
2023-04-18T09:08:35.645Z,51.18
2023-04-18T09:09:52.081Z,51.83
2023-04-18T09:10:54.847Z,51.74
2023-04-18T09:12:08.269Z,51.32
2023-04-18T09:13:11.421Z,55.87
2023-04-18T09:14:26.205Z,55.64
2023-04-18T09:15:30.044Z,54.94
2023-04-18T09:16:47.386Z,53.09
2023-04-18T09:17:54.259Z,56.04
2023-04-18T09:19:14.007Z,55.44
2023-04-18T09:20:30.980Z,55.45
2023-04-18T09:21:33.670Z,54.99
2023-04-18T09:22:53.146Z,54.72
2023-04-18T09:24:17.734Z,53.28
2023-04-18T09:25:34.645Z,51.51
2023-04-18T09:26:37.849Z,51.95
2023-04-18T09:27:40.577Z,52.38
2023-04-18T09:28:43.430Z,52.68
2023-04-18T09:29:49.579Z,55.61
2023-04-18T09:30:52.879Z,57.17
2023-04-18T09:32:02.321Z,56.23
2023-04-18T09:33:09.717Z,56.26
2023-04-18T09:34:25.188Z,53.92
2023-04-18T09:35:28.427Z,56.56
2023-04-18T09:36:32.656Z,58.28
2023-04-18T09:37:35.691Z,56.29
2023-04-18T09:38:42.027Z,56.20
2023-04-18T09:39:45.203Z,56.20
2023-04-18T09:41:08.344Z,55.58
2023-04-18T09:42:14.366Z,56.13
2023-04-18T09:43:21.630Z,54.77
2023-04-18T09:44:24.856Z,54.58
2023-04-18T09:45:27.753Z,55.58
2023-04-18T09:46:30.845Z,50.64
2023-04-18T09:47:36.681Z,50.75
2023-04-18T09:48:40.593Z,53.21
2023-04-18T09:49:43.243Z,52.93
2023-04-18T09:50:47.255Z,51.61
2023-04-18T09:51:54.364Z,48.88
2023-04-18T09:52:58.626Z,48.01
2023-04-18T09:54:04.631Z,50.22
2023-04-18T09:55:09.798Z,50.76
2023-04-18T09:56:28.096Z,50.28
2023-04-18T09:57:32.873Z,53.05
2023-04-18T09:58:41.333Z,52.59
2023-04-18T10:00:02.318Z,51.78
2023-04-18T10:01:05.518Z,51.13
2023-04-18T10:02:19.067Z,53.22
2023-04-18T10:03:28.907Z,50.17
2023-04-18T10:04:33.010Z,48.76
2023-04-18T10:05:39.049Z,49.18
2023-04-18T10:06:45.087Z,50.73
2023-04-18T10:07:49.809Z,50.72
2023-04-18T10:08:53.925Z,48.71
2023-04-18T10:09:56.683Z,48.70
2023-04-18T10:10:59.551Z,50.83
2023-04-18T10:12:02.915Z,51.29
2023-04-18T10:13:08.673Z,49.75
2023-04-18T10:14:14.440Z,49.71
2023-04-18T10:15:18.282Z,50.40
2023-04-18T10:16:21.188Z,51.18
2023-04-18T10:17:23.901Z,52.46
2023-04-18T10:18:26.915Z,52.98
2023-04-18T10:19:30.422Z,54.40
2023-04-18T10:20:35.399Z,55.31
2023-04-18T10:21:38.515Z,52.29
2023-04-18T10:22:41.214Z,52.32
2023-04-18T10:23:43.886Z,53.13
2023-04-18T10:24:54.411Z,56.25
2023-04-18T10:25:57.304Z,55.29
2023-04-18T10:26:59.885Z,55.50
2023-04-18T10:28:03.249Z,55.59
2023-04-18T10:29:05.870Z,54.96
2023-04-18T10:30:09.331Z,52.80
2023-04-18T10:31:12.255Z,53.85
2023-04-18T10:32:15.200Z,54.86
2023-04-18T10:33:30.351Z,55.65
2023-04-18T10:34:37.497Z,53.19
2023-04-18T10:36:13.899Z,53.79
2023-04-18T10:37:18.115Z,53.25
2023-04-18T10:38:23.766Z,54.75
2023-04-18T10:39:27.064Z,55.83
2023-04-18T10:40:34.475Z,54.38
2023-04-18T10:41:50.604Z,54.20
2023-04-18T10:42:54.137Z,55.92
2023-04-18T10:44:11.904Z,56.30
2023-04-18T10:45:24.991Z,55.34
2023-04-18T10:46:32.442Z,56.01
2023-04-18T10:47:36.026Z,55.98
2023-04-18T10:48:39.403Z,54.52
2023-04-18T10:49:54.354Z,55.65
2023-04-18T10:51:21.022Z,56.93
2023-04-18T10:52:23.854Z,58.17
2023-04-18T10:53:26.382Z,56.56
2023-04-18T10:54:39.313Z,57.16
2023-04-18T10:55:51.842Z,56.60
2023-04-18T10:56:59.990Z,56.30
2023-04-18T10:58:03.628Z,54.51
2023-04-18T10:59:09.412Z,54.74
2023-04-18T11:00:18.094Z,55.32
2023-04-18T11:01:27.486Z,53.67
2023-04-18T11:02:33.621Z,55.89
2023-04-18T11:03:37.354Z,56.06
2023-04-18T11:04:41.405Z,53.26
2023-04-18T11:05:44.603Z,55.21
2023-04-18T11:06:57.429Z,56.47
2023-04-18T11:08:00.113Z,52.99
2023-04-18T11:09:11.083Z,53.67
2023-04-18T11:10:13.660Z,53.31
2023-04-18T11:11:16.532Z,53.60
2023-04-18T11:12:19.266Z,51.89
2023-04-18T11:13:22.281Z,52.41
2023-04-18T11:14:24.969Z,52.32
2023-04-18T11:15:29.702Z,52.28
2023-04-18T11:16:34.639Z,50.40
2023-04-18T11:17:40.513Z,50.48
2023-04-18T11:18:43.304Z,51.05
2023-04-18T11:19:46.407Z,52.05
2023-04-18T11:20:52.519Z,51.10
2023-04-18T11:22:01.168Z,49.68
2023-04-18T11:23:03.884Z,51.26
2023-04-18T11:24:06.649Z,51.25
2023-04-18T11:25:09.628Z,50.36
2023-04-18T11:26:14.493Z,51.18
2023-04-18T11:27:18.513Z,50.26
2023-04-18T11:28:22.215Z,50.39
2023-04-18T11:29:24.955Z,50.90
2023-04-18T11:30:28.906Z,51.50
2023-04-18T11:31:31.756Z,53.81
2023-04-18T11:32:35.753Z,53.24
2023-04-18T11:33:38.527Z,51.92
2023-04-18T11:34:41.736Z,52.16
2023-04-18T11:35:46.246Z,54.06
2023-04-18T11:36:51.152Z,53.37
2023-04-18T11:37:54.908Z,53.09
2023-04-18T11:38:57.561Z,53.02
2023-04-18T11:40:00.323Z,53.58
2023-04-18T11:41:03.271Z,52.36
2023-04-18T11:42:06.117Z,52.61
2023-04-18T11:43:08.859Z,52.69
2023-04-18T11:44:12.046Z,52.73
2023-04-18T11:45:16.003Z,53.41
2023-04-18T11:46:18.771Z,52.85
2023-04-18T11:47:27.756Z,53.13
2023-04-18T11:48:41.465Z,51.06
2023-04-18T11:49:44.334Z,51.67
2023-04-18T11:50:46.973Z,52.30
2023-04-18T11:51:49.718Z,50.82
2023-04-18T11:52:53.960Z,51.89
2023-04-18T11:53:57.010Z,52.51
2023-04-18T11:55:18.654Z,53.04
2023-04-18T11:56:21.474Z,53.70
2023-04-18T11:57:27.698Z,52.72
2023-04-18T11:58:35.048Z,52.64
2023-04-18T11:59:37.816Z,53.03
2023-04-18T12:00:43.940Z,54.05
2023-04-18T12:01:46.757Z,53.42
2023-04-18T12:02:51.349Z,52.47
2023-04-18T12:04:04.880Z,52.86
2023-04-18T12:05:08.567Z,53.28
2023-04-18T12:06:12.119Z,54.87
2023-04-18T12:07:29.388Z,55.58
2023-04-18T12:08:32.827Z,53.67
2023-04-18T12:09:39.163Z,54.37
2023-04-18T12:10:50.836Z,54.39
2023-04-18T12:12:03.996Z,53.19
2023-04-18T12:13:08.892Z,51.73
2023-04-18T12:14:21.959Z,53.83
2023-04-18T12:15:29.458Z,52.83
2023-04-18T12:16:33.642Z,52.17
2023-04-18T12:17:38.395Z,53.17
2023-04-18T12:18:42.075Z,54.48
2023-04-18T12:19:49.667Z,53.52
2023-04-18T12:20:54.590Z,52.38
2023-04-18T12:22:05.404Z,54.14
2023-04-18T12:23:09.001Z,52.17
2023-04-18T12:24:18.452Z,53.58
2023-04-18T12:25:26.630Z,52.79
2023-04-18T12:26:30.252Z,53.84
2023-04-18T12:27:53.582Z,53.44
2023-04-18T12:28:56.344Z,53.61
2023-04-18T12:29:59.326Z,53.10
2023-04-18T12:31:02.961Z,52.31
2023-04-18T12:32:06.317Z,52.56
2023-04-18T12:33:11.744Z,52.62
2023-04-18T12:34:14.707Z,52.72
2023-04-18T12:35:19.539Z,51.54
2023-04-18T12:36:23.607Z,52.23
2023-04-18T12:37:26.339Z,51.29
2023-04-18T12:38:29.153Z,51.19
2023-04-18T12:39:31.911Z,51.64
2023-04-18T12:40:34.765Z,51.48
2023-04-18T12:41:37.546Z,50.17
2023-04-18T12:42:42.164Z,51.93
2023-04-18T12:43:44.906Z,48.54
2023-04-18T12:44:48.051Z,47.56
2023-04-18T12:45:50.920Z,45.49
2023-04-18T12:46:53.645Z,45.86
2023-04-18T12:47:56.598Z,46.68
2023-04-18T12:49:01.002Z,45.82
2023-04-18T12:50:03.851Z,45.41
2023-04-18T12:51:07.289Z,45.48
2023-04-18T12:52:09.937Z,45.90
2023-04-18T12:53:12.854Z,46.86
2023-04-18T12:54:15.675Z,47.65
2023-04-18T12:55:18.604Z,46.38
2023-04-18T12:56:21.686Z,44.36
2023-04-18T12:57:25.528Z,44.78
2023-04-18T12:58:28.260Z,45.78
2023-04-18T12:59:31.055Z,45.48
2023-04-18T13:00:34.035Z,47.41
2023-04-18T13:01:37.178Z,48.14
2023-04-18T13:02:44.489Z,47.15
2023-04-18T13:03:56.487Z,47.05
2023-04-18T13:05:18.254Z,47.05
2023-04-18T13:06:20.963Z,47.14
2023-04-18T13:07:23.875Z,47.46
2023-04-18T13:08:26.518Z,46.83
2023-04-18T13:09:29.227Z,46.78
2023-04-18T13:10:32.620Z,47.11
2023-04-18T13:11:35.288Z,46.99
2023-04-18T13:12:39.177Z,47.71
2023-04-18T13:13:41.822Z,47.52
2023-04-18T13:14:44.533Z,47.57
2023-04-18T13:15:47.147Z,47.61
2023-04-18T13:16:49.772Z,47.06
2023-04-18T13:17:52.527Z,45.72
2023-04-18T13:18:55.108Z,46.80
2023-04-18T13:19:57.925Z,48.52
2023-04-18T13:21:00.632Z,47.14
2023-04-18T13:22:04.773Z,46.18
2023-04-18T13:23:07.623Z,46.44
2023-04-18T13:24:10.307Z,45.01
2023-04-18T13:25:13.079Z,42.75
2023-04-18T13:26:15.696Z,43.24
2023-04-18T13:27:18.694Z,42.34
2023-04-18T13:28:21.521Z,41.43
2023-04-18T13:29:24.590Z,41.64
2023-04-18T13:30:27.741Z,40.72
2023-04-18T13:31:30.691Z,41.66
2023-04-18T13:32:35.277Z,41.71
2023-04-18T13:33:38.009Z,42.06
2023-04-18T13:34:45.897Z,42.28
2023-04-18T13:35:48.761Z,42.26
2023-04-18T13:36:51.528Z,43.74
2023-04-18T13:37:54.512Z,44.00
2023-04-18T13:38:57.323Z,41.79
2023-04-18T13:40:00.224Z,39.87
2023-04-18T13:41:12.158Z,39.56
2023-04-18T13:42:16.387Z,41.59
2023-04-18T13:43:19.301Z,40.70